Lietadlo (typ, imatrikulačný znak): _________________/__________________
Meno pilota (skontroloval): ___________________________________
Podpis pilota (skontroloval): ___________________________________

Predpoveď na dnes

Jasno až polooblačno, len ojedinele zväčšená oblačnosť s možnosťou prehánky. Veľmi teplo. Najvyššia denná teplota 23 až 28 st., len ojedinele chladnejšie. Teplota na horách vo výške 1500 m okolo 14 st. Prevažne slabý premenlivý vietor. Predpokladané množstvo zrážok: do 3 mm

SHMÚ, OMPaV, CS 22.4.2018 11:30 LSEČ

METAR - Letisková meteo správa

Letisková meteorologická správa METAR

Meteorologické informácie z ďalších profesionálnych meteorologických staníc SHMÚ zobrazené v tvare zodpovedajúcom pravidlám kódovania správ METAR sú uvedené v položke „METSYN Informácie o správe METAR

22.04.2018 - 12:00 UTC

METAR LZIB 221200Z VRB03KT 9999 FEW047 26/13 Q1015 NOSIG=
 METAR LZKZ 221200Z VRB02KT CAVOK 22/11 Q1015 NOSIG=
 METAR LZPP 221200Z 31007KT 9999 FEW045 25/11 Q1015=
 METAR LZSL 221200Z 28011KT 250V310 9999 SCT047 26/09 Q1014=
 METAR LZTT 221200Z 06010KT 040V100 9999 FEW063 21/08 Q1015 NOSIG=
 METAR LZZI 221200Z VRB02KT 9999 FEW053 24/09 Q1015=
 

22.04.2018 - 11:30 UTC

METAR LZIB 221130Z VRB02KT 9999 FEW047 25/12 Q1015 NOSIG=
 METAR LZKZ 221130Z VRB02KT CAVOK 22/09 Q1015 NOSIG=
 METAR LZPP 221130Z 29005KT 240V010 CAVOK 25/11 Q1015=
 METAR LZSL 221130Z VRB02KT 9999 FEW045 25/10 Q1014=
 METAR LZTT 221130Z 05009KT 010V110 9999 FEW060 21/09 Q1015 NOSIG=
 METAR LZZI 221130Z VRB03KT 9999 FEW050 24/08 Q1015=
 

22.04.2018 - 12:00 UTC

METAR LZMC 221200Z 35006KT CAVOK 26/09 Q1016=
 METAR LZPW 221200Z 09004KT CAVOK 23/06 Q1015=
 

TAF - Letisková predpoveď

22.04.2018 - 11:00 UTC

TAF LZIB 221100Z 2212/2312 VRB02KT CAVOK
     BECMG 2309/2311 28005KT 9999 FEW038 SCT045=
 TAF LZKZ 221100Z 2212/2312 08005KT CAVOK
     BECMG 2223/2301 36004KT
     BECMG 2310/2312 18005KT 9999 SCT045=
 TAF LZTT 221100Z 2212/2312 06008KT 9999 FEW060
     BECMG 2215/2217 VRB02KT CAVOK
     BECMG 2310/2312 27006KT 9999 FEW050 BKN060=
 

22.04.2018 - 11:00 UTC

TAF LZSL 221100Z 2212/2221 VRB02KT CAVOK
     BECMG 2217/2219 32005KT=
 TAF LZPP 221100Z 2212/2221 32006KT CAVOK
     BECMG 2218/2220 VRB02KT=
 TAF LZZI 221100Z 2212/2221 VRB02KT 9999 FEW050
     BECMG 2214/2216 CAVOK=
 

22.04.2018 - 08:00 UTC

TAF LZSL 220800Z 2209/2218 VRB02KT CAVOK
     BECMG 2210/2212 12006KT 9999 FEW060=
 TAF LZPP 220800Z 2209/2218 01006KT CAVOK=
 TAF LZZI 220800Z 2209/2218 08005KT CAVOK=
 

22.04.2018 - 05:00 UTC

TAF LZSL 220500Z 2206/2215 VRB02KT CAVOK
     BECMG 2209/2211 02006KT 9999 SCT060=
 TAF LZPP 220500Z 2206/2215 01006KT CAVOK=
 TAF LZZI 220500Z 2206/2215 08005KT CAVOK=
 

22.04.2018 - 05:00 UTC

TAF LZIB 220500Z 2206/2306 01005KT CAVOK
     BECMG 2209/2211 12006KT
     BECMG 2218/2220 VRB02KT=
 TAF LZKZ 220500Z 2206/2306 02004KT CAVOK
     TEMPO 2212/2218 9999 SCT045 SCT100=
 TAF LZTT 220500Z 2206/2306 26005KT 9999 FEW060
     TEMPO 2206/2210 VRB02KT
     BECMG 2217/2219 VRB02KT=
 

22.04.2018 - 02:00 UTC

TAF LZSL 220200Z 2203/2212 VRB02KT CAVOK=
 TAF LZZI 220200Z 2203/2212 VRB02KT CAVOK=